createdAt,value
2018-05-27T00:01:15.658Z,5.97
2018-05-27T00:07:20.773Z,5.43
2018-05-27T00:13:25.846Z,5.63
2018-05-27T00:19:30.353Z,5.90
2018-05-27T00:25:34.698Z,5.83
2018-05-27T00:31:39.041Z,5.83
2018-05-27T00:37:43.396Z,5.43
2018-05-27T00:43:47.749Z,5.77
2018-05-27T00:49:52.145Z,5.73
2018-05-27T00:55:57.226Z,6.37
2018-05-27T01:02:01.616Z,6.00
2018-05-27T01:08:05.965Z,6.00
2018-05-27T01:14:10.463Z,5.93
2018-05-27T01:20:14.800Z,6.23
2018-05-27T01:26:19.180Z,6.00
2018-05-27T01:32:24.279Z,6.13
2018-05-27T01:38:28.595Z,5.70
2018-05-27T01:44:33.763Z,5.80
2018-05-27T01:50:38.182Z,5.63
2018-05-27T01:56:42.520Z,6.07
2018-05-27T02:02:46.860Z,5.83
2018-05-27T02:08:51.320Z,7.10
2018-05-27T02:14:55.721Z,7.50
2018-05-27T02:21:00.136Z,7.83
2018-05-27T02:27:04.509Z,6.57
2018-05-27T02:33:08.859Z,5.80
2018-05-27T02:39:13.204Z,7.70
2018-05-27T02:45:18.547Z,7.03
2018-05-27T02:51:23.531Z,8.10
2018-05-27T02:57:27.868Z,8.27
2018-05-27T03:03:32.954Z,7.63
2018-05-27T03:09:37.474Z,6.40
2018-05-27T03:15:41.804Z,6.23
2018-05-27T03:21:47.085Z,7.20
2018-05-27T03:27:52.308Z,7.70
2018-05-27T03:33:56.696Z,7.47
2018-05-27T03:40:01.049Z,8.03
2018-05-27T03:46:06.151Z,7.17
2018-05-27T03:52:11.256Z,7.50
2018-05-27T03:58:15.596Z,7.53
2018-05-27T04:04:37.541Z,7.93
2018-05-27T04:10:41.977Z,6.97
2018-05-27T04:16:47.104Z,7.37
2018-05-27T04:22:51.489Z,6.23
2018-05-27T04:28:56.735Z,6.00
2018-05-27T04:35:01.853Z,7.17
2018-05-27T04:41:06.194Z,7.47
2018-05-27T04:47:10.543Z,7.57
2018-05-27T04:53:14.881Z,7.27
2018-05-27T04:59:19.830Z,7.17
2018-05-27T05:05:24.513Z,7.37
2018-05-27T05:11:29.637Z,8.50
2018-05-27T05:17:34.044Z,7.47
2018-05-27T05:23:38.364Z,7.83
2018-05-27T05:29:42.757Z,8.60
2018-05-27T05:35:47.099Z,9.77
2018-05-27T05:41:51.625Z,8.63
2018-05-27T05:47:56.109Z,8.83
2018-05-27T05:54:00.451Z,8.17
2018-05-27T06:00:04.861Z,7.83
2018-05-27T06:06:09.217Z,9.13
2018-05-27T06:12:13.565Z,9.70
2018-05-27T06:18:18.669Z,8.80
2018-05-27T06:24:23.013Z,9.87
2018-05-27T06:30:27.372Z,10.43
2018-05-27T06:36:31.731Z,8.70
2018-05-27T06:42:36.073Z,11.23
2018-05-27T06:48:40.453Z,10.13
2018-05-27T06:54:44.824Z,9.40
2018-05-27T07:00:49.891Z,9.47
2018-05-27T07:06:54.373Z,8.53
2018-05-27T07:12:58.729Z,9.53
2018-05-27T07:19:03.116Z,7.87
2018-05-27T07:25:07.455Z,8.43
2018-05-27T07:31:11.812Z,9.77
2018-05-27T07:37:16.174Z,9.63
2018-05-27T07:43:20.667Z,9.10
2018-05-27T07:49:25.084Z,9.27
2018-05-27T07:55:29.432Z,9.90
2018-05-27T08:01:33.784Z,11.93
2018-05-27T08:07:38.143Z,9.30
2018-05-27T08:13:42.528Z,9.90
2018-05-27T08:19:46.958Z,9.10
2018-05-27T08:25:51.764Z,8.53
2018-05-27T08:31:56.995Z,8.37
2018-05-27T08:38:01.339Z,8.27
2018-05-27T08:44:05.653Z,8.03
2018-05-27T08:50:10.038Z,8.30
2018-05-27T08:56:14.388Z,8.63
2018-05-27T09:02:19.812Z,9.43
2018-05-27T09:08:25.067Z,10.37
2018-05-27T09:14:29.422Z,9.47
2018-05-27T09:20:34.616Z,8.90
2018-05-27T09:26:39.797Z,8.60
2018-05-27T09:32:45.003Z,7.50
2018-05-27T09:38:50.294Z,7.37
2018-05-27T09:44:54.792Z,7.47
2018-05-27T09:50:59.226Z,7.63
2018-05-27T09:57:03.646Z,7.23
2018-05-27T10:03:08.758Z,7.73
2018-05-27T10:09:13.120Z,7.23
2018-05-27T10:15:17.468Z,7.47
2018-05-27T10:21:23.441Z,6.80
2018-05-27T10:27:27.791Z,7.77
2018-05-27T10:33:32.174Z,7.13
2018-05-27T10:39:36.513Z,7.27
2018-05-27T10:45:41.624Z,8.17
2018-05-27T10:51:45.932Z,7.03
2018-05-27T10:57:51.095Z,7.00
2018-05-27T11:03:55.445Z,7.43
2018-05-27T11:10:00.878Z,6.90
2018-05-27T11:16:05.184Z,6.73
2018-05-27T11:22:10.330Z,6.77
2018-05-27T11:28:14.713Z,6.93
2018-05-27T11:34:19.100Z,5.70
2018-05-27T11:40:23.844Z,6.83
2018-05-27T11:46:28.235Z,7.43
2018-05-27T11:52:32.601Z,5.67
2018-05-27T11:58:36.907Z,5.90
2018-05-27T12:04:41.286Z,4.63
2018-05-27T12:10:45.737Z,5.17
2018-05-27T12:16:50.383Z,5.20
2018-05-27T12:22:54.916Z,5.30
2018-05-27T12:28:59.281Z,6.00
2018-05-27T12:35:03.648Z,5.53
2018-05-27T12:41:07.992Z,5.10
2018-05-27T12:47:13.102Z,5.30
2018-05-27T12:53:17.439Z,5.70
2018-05-27T12:59:21.870Z,6.13
2018-05-27T13:05:26.362Z,5.30
2018-05-27T13:11:30.738Z,16.73
2018-05-27T13:17:35.088Z,5.27
2018-05-27T13:23:39.429Z,5.37
2018-05-27T13:29:44.540Z,5.80
2018-05-27T13:35:50.277Z,5.23
2018-05-27T13:41:54.845Z,6.13
2018-05-27T13:47:59.221Z,5.70
2018-05-27T13:54:03.553Z,5.53
2018-05-27T14:00:07.902Z,5.07
2018-05-27T14:06:12.262Z,4.70
2018-05-27T14:12:16.605Z,5.60
2018-05-27T14:18:21.133Z,5.10
2018-05-27T14:24:25.669Z,6.37
2018-05-27T14:30:30.020Z,4.80
2018-05-27T14:36:34.384Z,7.23
2018-05-27T14:42:38.726Z,9.07
2018-05-27T14:48:43.065Z,31.67
2018-05-27T14:54:47.452Z,14.37
2018-05-27T15:00:52.584Z,6.40
2018-05-27T15:06:56.928Z,6.73
2018-05-27T15:13:01.239Z,6.87
2018-05-27T15:19:05.660Z,7.80
2018-05-27T15:25:10.008Z,10.60
2018-05-27T15:31:14.367Z,7.63
2018-05-27T15:37:19.499Z,6.20
2018-05-27T15:43:23.992Z,6.37
2018-05-27T15:49:28.397Z,8.10
2018-05-27T15:55:32.748Z,9.20
2018-05-27T16:01:37.060Z,10.67
2018-05-27T16:07:41.452Z,13.63
2018-05-27T16:13:46.525Z,12.43
2018-05-27T16:19:51.520Z,13.20
2018-05-27T16:25:56.677Z,14.97
2018-05-27T16:32:01.075Z,14.77
2018-05-27T16:38:05.425Z,17.00
2018-05-27T16:44:09.786Z,16.20
2018-05-27T16:50:14.148Z,15.07
2018-05-27T16:56:18.535Z,14.20
2018-05-27T17:02:23.948Z,16.10
2018-05-27T17:08:28.317Z,16.97
2018-05-27T17:14:32.819Z,16.77
2018-05-27T17:20:37.188Z,17.27
2018-05-27T17:26:41.879Z,18.50
2018-05-27T17:32:46.236Z,22.97
2018-05-27T17:38:50.865Z,20.17
2018-05-27T17:44:56.024Z,18.70
2018-05-27T17:51:00.369Z,19.20
2018-05-27T17:57:04.828Z,13.80
2018-05-27T18:03:09.178Z,8.70
2018-05-27T18:09:14.281Z,9.93
2018-05-27T18:15:18.636Z,11.20
2018-05-27T18:21:24.449Z,11.23
2018-05-27T18:27:28.800Z,10.67
2018-05-27T18:33:33.208Z,11.80
2018-05-27T18:39:38.331Z,12.47
2018-05-27T18:45:42.685Z,12.20
2018-05-27T18:51:47.036Z,11.83
2018-05-27T18:57:52.995Z,12.70
2018-05-27T19:03:57.487Z,14.53
2018-05-27T19:10:01.842Z,13.80
2018-05-27T19:16:06.199Z,13.30
2018-05-27T19:22:10.561Z,14.10
2018-05-27T19:28:15.718Z,13.90
2018-05-27T19:34:20.262Z,15.57
2018-05-27T19:40:25.941Z,16.20
2018-05-27T19:46:31.061Z,15.70
2018-05-27T19:52:35.472Z,17.10
2018-05-27T19:58:39.798Z,16.30
2018-05-27T20:04:44.188Z,18.73
2018-05-27T20:10:48.556Z,17.77
2018-05-27T20:16:53.293Z,18.47
2018-05-27T20:22:57.861Z,17.27
2018-05-27T20:29:02.252Z,19.80
2018-05-27T20:35:07.370Z,16.53
2018-05-27T20:41:11.750Z,17.53
2018-05-27T20:47:16.097Z,18.93
2018-05-27T20:53:21.987Z,17.40
2018-05-27T20:59:26.332Z,16.87
2018-05-27T21:05:31.079Z,16.60
2018-05-27T21:11:36.196Z,18.80
2018-05-27T21:17:40.591Z,18.83
2018-05-27T21:23:44.937Z,17.00
2018-05-27T21:29:50.765Z,18.60
2018-05-27T21:35:55.576Z,19.33
2018-05-27T21:41:59.973Z,19.53
2018-05-27T21:48:04.386Z,18.60
2018-05-27T21:54:08.767Z,18.43
2018-05-27T22:00:13.118Z,20.73
2018-05-27T22:06:18.239Z,20.37
2018-05-27T22:12:22.773Z,20.17
2018-05-27T22:18:27.118Z,19.57
2018-05-27T22:24:31.528Z,18.50
2018-05-27T22:30:36.641Z,17.80
2018-05-27T22:36:41.004Z,18.37
2018-05-27T22:42:45.407Z,18.07
2018-05-27T22:48:50.143Z,16.40
2018-05-27T22:54:54.984Z,13.97
2018-05-27T23:00:59.429Z,16.10
2018-05-27T23:07:03.809Z,16.60
2018-05-27T23:13:08.176Z,17.50
2018-05-27T23:19:13.289Z,19.30
2018-05-27T23:25:17.643Z,18.90
2018-05-27T23:31:22.286Z,16.40
2018-05-27T23:37:26.732Z,16.87
2018-05-27T23:43:31.114Z,22.33
2018-05-27T23:49:35.457Z,21.87
2018-05-27T23:55:39.820Z,20.37
